Pagina principale
METAR-TAF:

METAR-TAF

Aeroporti :

Aeroporto Internazionale di Sarajevo

Sarajevo, Bosnia-Erzegovina

latitudine: 43-49N, longitudine: 018-20E, altezza: 511 m

Osservazione

Il bollettino è stato emesso 33 minuti fa, alle 23:00 UTC
Vento 2 kt da direzioni variabili
Temperature 12°C
Umidità 94%
Pressione 1010 hPa
Visibilità 10 km o più
Nubi sparse ad un'altezza di 5000 ft
Nuvoloso ad un'altezza di 7300 ft

METAR: LQSA 152300Z VRB02KT 9999 SCT050 BKN073 12/11 Q1010

Ora: 01:33 (23:33 UTC)

Previsione

Il bollettino è stato emesso 6 ore e 33 minuti fa, alle 17:00 UTC
Previsione valida dal 15 alle 18 UTC al 16 alle 18 UTC
Vento 6 kt da sud-ovest
Visibilità 10 km o più
Nuvoloso ad un'altezza di 4000 ft
Probabilità 40% :
Temporaneamente
dal 16 alle 02 UTC al 16 alle 07 UTC
Visibilità: 3000 m
Nuvoloso ad un'altezza di 500 ft
foschia

TAF: LQSA 151700Z 1518/1618 22006KT 9999 BKN040 TX19/1614Z TN06/1604Z PROB40 TEMPO 1602/1607 3000 BR BKN005

Osservazioni e previsioni meteorologiche di più di 4000 aeroporti (messaggi METAR e TAF).

Le stazioni disponibili sono rappresentate dai dischi gialli e rossi sulla carta.

Puntare il mouse per vedere il nome della stazione.

Clicca sopra per visualizzare le osservazioni e previsioni meteorologiche.

Per cambiare la mappa : fare clic sui pulsanti verdi con una croce nera per ingrandire, il pulsante verde con un trattino per diminuire, o sulla freccia verde per le mappe adiacenti.


METAR-TAF: